createdAt,value
2022-10-27T00:00:59.620Z,13.63
2022-10-27T00:01:59.626Z,13.62
2022-10-27T00:02:59.703Z,13.62
2022-10-27T00:03:59.590Z,13.63
2022-10-27T00:04:59.581Z,13.63
2022-10-27T00:05:59.571Z,13.65
2022-10-27T00:06:59.580Z,13.63
2022-10-27T00:07:59.574Z,13.63
2022-10-27T00:08:59.547Z,13.62
2022-10-27T00:09:59.537Z,13.62
2022-10-27T00:10:59.514Z,13.62
2022-10-27T00:11:59.505Z,13.57
2022-10-27T00:12:59.488Z,13.57
2022-10-27T00:13:59.481Z,13.56
2022-10-27T00:14:59.496Z,13.56
2022-10-27T00:15:59.466Z,13.53
2022-10-27T00:16:59.468Z,13.50
2022-10-27T00:17:59.437Z,13.47
2022-10-27T00:18:59.445Z,13.46
2022-10-27T00:19:59.484Z,13.47
2022-10-27T00:20:59.401Z,13.44
2022-10-27T00:21:59.402Z,13.42
2022-10-27T00:22:59.402Z,13.41
2022-10-27T00:23:59.376Z,13.39
2022-10-27T00:24:59.361Z,13.41
2022-10-27T00:25:59.395Z,13.41
2022-10-27T00:26:59.366Z,13.39
2022-10-27T00:27:59.347Z,13.38
2022-10-27T00:28:59.318Z,13.39
2022-10-27T00:29:59.311Z,13.37
2022-10-27T00:30:59.296Z,13.39
2022-10-27T00:31:59.284Z,13.41
2022-10-27T00:32:59.283Z,13.39
2022-10-27T00:33:59.268Z,13.41
2022-10-27T00:34:59.265Z,13.41
2022-10-27T00:35:59.272Z,13.38
2022-10-27T00:36:59.231Z,13.37
2022-10-27T00:37:59.228Z,13.35
2022-10-27T00:38:59.241Z,13.35
2022-10-27T00:39:59.206Z,13.33
2022-10-27T00:40:59.182Z,13.33
2022-10-27T00:41:59.183Z,13.30
2022-10-27T00:42:59.186Z,13.28
2022-10-27T00:43:59.173Z,13.28
2022-10-27T00:44:59.186Z,13.28
2022-10-27T00:45:59.148Z,13.27
2022-10-27T00:46:59.135Z,13.22
2022-10-27T00:47:59.119Z,13.20
2022-10-27T00:48:59.105Z,13.19
2022-10-27T00:49:59.105Z,13.18
2022-10-27T00:50:59.077Z,13.16
2022-10-27T00:51:59.080Z,13.15
2022-10-27T00:52:59.063Z,13.12
2022-10-27T00:53:59.046Z,13.12
2022-10-27T00:54:59.054Z,13.09
2022-10-27T00:55:59.036Z,13.08
2022-10-27T00:56:59.009Z,13.04
2022-10-27T00:57:59.010Z,13.05
2022-10-27T00:58:58.988Z,13.03
2022-10-27T00:59:59.004Z,13.03
2022-10-27T01:00:59.010Z,13.00
2022-10-27T01:02:58.943Z,12.98
2022-10-27T01:03:58.945Z,12.98
2022-10-27T01:04:58.921Z,12.98
2022-10-27T01:05:58.941Z,12.98
2022-10-27T01:06:58.900Z,12.94
2022-10-27T01:07:58.894Z,12.91
2022-10-27T01:08:58.877Z,12.91
2022-10-27T01:09:58.870Z,12.91
2022-10-27T05:01:13.226Z,11.41
2022-10-27T05:02:13.993Z,11.40
2022-10-27T05:03:13.966Z,11.37
2022-10-27T05:04:13.914Z,11.36
2022-10-27T05:05:13.890Z,11.35
2022-10-27T05:06:13.903Z,11.30
2022-10-27T05:07:13.900Z,11.26
2022-10-27T05:08:13.862Z,11.25
2022-10-27T05:09:13.849Z,11.19
2022-10-27T05:10:13.849Z,11.17
2022-10-27T05:11:16.337Z,11.14
2022-10-27T05:12:13.840Z,11.11
2022-10-27T05:13:13.809Z,11.08
2022-10-27T05:14:13.801Z,11.05
2022-10-27T05:15:14.663Z,11.05
2022-10-27T05:16:19.772Z,11.05
2022-10-27T05:17:18.435Z,11.04
2022-10-27T05:18:13.756Z,11.02
2022-10-27T05:19:13.747Z,11.05
2022-10-27T05:20:13.731Z,11.04
2022-10-27T05:21:13.713Z,11.02
2022-10-27T05:22:13.733Z,11.00
2022-10-27T05:23:13.717Z,11.00
2022-10-27T05:24:13.690Z,10.97
2022-10-27T05:25:13.667Z,10.93
2022-10-27T05:26:13.662Z,10.92
2022-10-27T05:27:13.655Z,10.90
2022-10-27T05:28:13.640Z,10.89
2022-10-27T05:29:13.656Z,10.89
2022-10-27T05:30:13.622Z,10.90
2022-10-27T05:31:13.607Z,10.89
2022-10-27T05:32:13.603Z,10.89
2022-10-27T05:33:13.586Z,10.89
2022-10-27T05:34:13.591Z,10.93
2022-10-27T05:35:13.573Z,10.90
2022-10-27T05:36:13.582Z,10.92
2022-10-27T05:37:13.547Z,10.87
2022-10-27T05:38:13.530Z,10.87
2022-10-27T05:39:13.520Z,10.89
2022-10-27T05:40:13.460Z,10.87
2022-10-27T05:41:13.459Z,10.90
2022-10-27T05:42:13.547Z,10.89
2022-10-27T05:43:13.427Z,10.87
2022-10-27T05:44:13.475Z,10.86
2022-10-27T05:45:13.411Z,10.81
2022-10-27T05:46:13.406Z,10.78
2022-10-27T05:47:13.380Z,10.76
2022-10-27T05:48:13.416Z,10.75
2022-10-27T05:49:13.356Z,10.74
2022-10-27T05:50:13.364Z,10.74
2022-10-27T05:51:14.756Z,10.78
2022-10-27T05:52:13.330Z,10.81
2022-10-27T05:53:13.311Z,10.82
2022-10-27T05:54:13.326Z,10.84
2022-10-27T05:55:13.291Z,10.87
2022-10-27T05:56:13.295Z,10.89
2022-10-27T05:57:13.271Z,10.89
2022-10-27T05:58:13.265Z,10.87
2022-10-27T05:59:13.266Z,10.86
2022-10-27T06:00:13.690Z,10.86
2022-10-27T06:01:13.354Z,10.84
2022-10-27T06:02:13.343Z,10.87
2022-10-27T06:03:13.213Z,10.89
2022-10-27T06:04:13.206Z,10.87
2022-10-27T06:05:13.205Z,10.89
2022-10-27T06:06:13.174Z,10.92
2022-10-27T06:07:13.205Z,10.90
2022-10-27T06:08:13.153Z,10.92
2022-10-27T06:09:13.139Z,10.92
2022-10-27T06:10:13.131Z,10.94
2022-10-27T06:11:13.138Z,10.94
2022-10-27T06:12:13.107Z,10.96
2022-10-27T06:13:13.096Z,10.93
2022-10-27T06:14:13.085Z,10.96
2022-10-27T06:15:13.104Z,10.94
2022-10-27T06:16:13.290Z,10.96
2022-10-27T06:17:13.128Z,10.94
2022-10-27T06:18:13.048Z,10.94
2022-10-27T06:19:13.032Z,10.97
2022-10-27T06:20:13.025Z,10.93
2022-10-27T06:21:13.071Z,10.94
2022-10-27T06:22:16.437Z,10.94
2022-10-27T06:23:13.015Z,10.94
2022-10-27T06:24:13.003Z,10.94
2022-10-27T06:25:12.975Z,10.97
2022-10-27T06:26:12.970Z,10.96
2022-10-27T06:27:12.947Z,10.99
2022-10-27T06:28:12.941Z,10.99
2022-10-27T06:29:12.965Z,11.02
2022-10-27T06:30:12.923Z,11.05
2022-10-27T06:31:12.902Z,11.07
2022-10-27T06:32:12.927Z,11.05
2022-10-27T06:33:12.881Z,11.07
2022-10-27T06:34:12.872Z,11.10
2022-10-27T06:35:12.868Z,11.11
2022-10-27T06:36:12.848Z,11.08
2022-10-27T06:37:12.838Z,11.11
2022-10-27T06:38:12.850Z,11.08
2022-10-27T06:39:12.809Z,11.05
2022-10-27T06:40:12.808Z,11.04
2022-10-27T06:41:15.262Z,11.00
2022-10-27T06:42:12.781Z,10.97
2022-10-27T06:43:13.141Z,10.96
2022-10-27T06:44:12.762Z,10.94
2022-10-27T06:45:12.757Z,10.93
2022-10-27T06:46:12.748Z,10.89
2022-10-27T06:47:12.746Z,10.89
2022-10-27T06:48:12.727Z,10.86
2022-10-27T06:49:15.384Z,10.84
2022-10-27T06:50:12.703Z,10.86
2022-10-27T06:51:12.679Z,10.81
2022-10-27T06:52:12.680Z,10.82
2022-10-27T06:53:12.680Z,10.82
2022-10-27T06:54:12.672Z,10.82
2022-10-27T06:55:12.654Z,10.82
2022-10-27T06:56:12.635Z,10.86
2022-10-27T06:57:12.670Z,10.84
2022-10-27T06:58:12.629Z,10.87
2022-10-27T06:59:12.601Z,10.89
2022-10-27T07:00:12.592Z,10.90
2022-10-27T07:01:12.666Z,10.93
2022-10-27T07:02:12.779Z,10.94
2022-10-27T07:03:12.559Z,10.96
2022-10-27T07:04:12.569Z,10.96
2022-10-27T07:05:12.557Z,10.99
2022-10-27T07:06:12.539Z,11.00
2022-10-27T07:07:12.535Z,11.00
2022-10-27T07:08:12.519Z,11.05
2022-10-27T07:09:12.525Z,11.07
2022-10-27T07:10:12.509Z,11.11
2022-10-27T07:11:12.482Z,11.08
2022-10-27T07:12:12.473Z,11.08
2022-10-27T07:13:12.455Z,11.11
2022-10-27T07:14:12.436Z,11.10
2022-10-27T07:15:12.449Z,11.10
2022-10-27T07:16:12.417Z,11.11
2022-10-27T07:17:12.423Z,11.10
2022-10-27T07:18:12.391Z,11.12
2022-10-27T07:19:12.376Z,11.12
2022-10-27T07:20:12.367Z,11.15
2022-10-27T07:21:12.385Z,11.19
2022-10-27T07:22:12.360Z,11.23
2022-10-27T07:23:12.343Z,11.26
2022-10-27T07:24:14.501Z,11.29
2022-10-27T07:25:12.317Z,11.29
2022-10-27T07:26:12.305Z,11.32
2022-10-27T07:27:12.313Z,11.32
2022-10-27T07:28:12.284Z,11.35
2022-10-27T07:29:12.271Z,11.37
2022-10-27T07:30:12.261Z,11.41
2022-10-27T07:31:12.257Z,11.41
2022-10-27T07:32:12.245Z,11.47
2022-10-27T07:33:12.251Z,11.48
2022-10-27T07:34:12.220Z,11.51
2022-10-27T07:35:12.208Z,11.52
2022-10-27T07:36:12.196Z,11.54
2022-10-27T07:37:12.179Z,11.57
2022-10-27T07:38:12.173Z,11.59
2022-10-27T07:39:12.187Z,11.60
2022-10-27T07:40:12.149Z,11.60
2022-10-27T07:41:12.140Z,11.62
2022-10-27T07:42:12.134Z,11.60
2022-10-27T07:43:12.122Z,11.59
2022-10-27T07:44:12.120Z,11.60
2022-10-27T07:45:12.127Z,11.60
2022-10-27T07:46:12.086Z,11.63
2022-10-27T07:47:12.080Z,11.65
2022-10-27T07:48:12.078Z,11.68
2022-10-27T07:49:12.079Z,11.66
2022-10-27T07:50:12.114Z,11.68
2022-10-27T07:51:12.051Z,11.68
2022-10-27T07:52:12.022Z,11.69
2022-10-27T07:53:12.015Z,11.70
2022-10-27T07:54:12.049Z,11.73
2022-10-27T07:55:14.475Z,11.75
2022-10-27T07:56:11.981Z,11.78
2022-10-27T07:57:11.983Z,11.81
2022-10-27T07:58:11.973Z,11.83
2022-10-27T08:00:11.957Z,11.84
2022-10-27T08:01:12.053Z,11.86
2022-10-27T08:02:12.115Z,11.88
2022-10-27T08:03:11.932Z,11.87
2022-10-27T08:04:11.891Z,11.90
2022-10-27T08:05:11.887Z,11.90
2022-10-27T08:06:11.866Z,11.99
2022-10-27T08:07:11.854Z,12.00
2022-10-27T08:08:11.862Z,12.03
2022-10-27T08:09:15.244Z,12.04
2022-10-27T08:10:11.848Z,12.07
2022-10-27T08:11:11.810Z,12.09
2022-10-27T08:12:11.803Z,12.09
2022-10-27T08:13:11.790Z,12.13
2022-10-27T08:14:11.795Z,12.15
2022-10-27T08:15:11.778Z,12.18
2022-10-27T08:16:11.759Z,12.18
2022-10-27T08:17:11.763Z,12.21
2022-10-27T08:18:11.738Z,12.24
2022-10-27T08:19:11.725Z,12.25
2022-10-27T08:20:11.726Z,12.27
2022-10-27T08:21:11.721Z,12.29
2022-10-27T08:22:13.947Z,12.35
2022-10-27T08:23:11.688Z,12.35
2022-10-27T08:24:11.696Z,12.36
2022-10-27T08:25:11.658Z,12.39
2022-10-27T08:26:11.662Z,12.40
2022-10-27T08:27:11.669Z,12.43
2022-10-27T08:28:11.634Z,12.45
2022-10-27T08:29:11.708Z,12.46
2022-10-27T08:30:11.606Z,12.47
2022-10-27T08:31:11.613Z,12.50
2022-10-27T08:32:11.587Z,12.50
2022-10-27T08:33:11.599Z,12.55
2022-10-27T08:34:11.641Z,12.60
2022-10-27T08:35:11.552Z,12.61
2022-10-27T08:36:11.540Z,12.65
2022-10-27T08:37:11.530Z,12.67
2022-10-27T08:38:11.528Z,12.68
2022-10-27T08:39:11.524Z,12.72
2022-10-27T08:40:11.498Z,12.75
2022-10-27T08:41:11.487Z,12.75
2022-10-27T08:42:11.478Z,12.79
2022-10-27T08:43:11.462Z,12.79
2022-10-27T08:44:11.453Z,12.80
2022-10-27T08:45:11.456Z,12.85
2022-10-27T08:46:11.432Z,12.87
2022-10-27T08:47:11.424Z,12.87
2022-10-27T08:48:11.421Z,12.94
2022-10-27T08:49:11.410Z,12.95
2022-10-27T08:50:11.438Z,12.98
2022-10-27T08:51:11.428Z,13.00
2022-10-27T08:52:11.371Z,13.05
2022-10-27T08:53:11.349Z,13.09
2022-10-27T08:54:11.401Z,13.12
2022-10-27T08:55:11.336Z,13.12
2022-10-27T08:56:11.321Z,13.15
2022-10-27T08:57:11.359Z,13.18
2022-10-27T08:58:11.313Z,13.19
2022-10-27T08:59:11.308Z,13.22
2022-10-27T09:00:11.274Z,13.25
2022-10-27T09:01:11.458Z,13.28
2022-10-27T09:02:11.401Z,13.30
2022-10-27T09:03:11.246Z,13.37
2022-10-27T09:04:11.234Z,13.39
2022-10-27T09:05:13.785Z,13.39
2022-10-27T09:07:21.549Z,13.50
2022-10-27T09:08:22.503Z,13.53
2022-10-27T09:09:22.498Z,13.56
2022-10-27T09:10:22.484Z,13.56
2022-10-27T09:11:22.474Z,13.59
2022-10-27T09:12:22.482Z,13.59
2022-10-27T09:13:22.453Z,13.62
2022-10-27T09:14:22.439Z,13.63
2022-10-27T09:15:22.432Z,13.68
2022-10-27T09:16:22.419Z,13.71
2022-10-27T09:17:22.410Z,13.72
2022-10-27T09:18:22.419Z,13.72
2022-10-27T09:19:22.400Z,13.77
2022-10-27T09:20:22.372Z,13.79
2022-10-27T09:21:22.360Z,13.79
2022-10-27T09:22:22.353Z,13.86
2022-10-27T09:23:22.350Z,13.87
2022-10-27T09:24:22.348Z,13.90
2022-10-27T09:25:22.327Z,13.92
2022-10-27T09:26:22.306Z,13.93
2022-10-27T09:27:22.302Z,13.95
2022-10-27T09:28:22.294Z,13.95
2022-10-27T09:29:22.291Z,13.96
2022-10-27T09:30:22.445Z,13.99
2022-10-27T09:31:22.263Z,14.00
2022-10-27T09:32:22.248Z,14.00
2022-10-27T09:33:22.255Z,14.04
2022-10-27T09:34:22.224Z,14.03
2022-10-27T09:35:22.236Z,14.07
2022-10-27T09:36:22.195Z,14.08
2022-10-27T09:37:22.212Z,14.08
2022-10-27T09:38:22.187Z,14.10
2022-10-27T09:39:22.168Z,14.10
2022-10-27T09:40:22.169Z,14.11
2022-10-27T09:41:22.146Z,14.11
2022-10-27T09:42:22.130Z,14.12
2022-10-27T09:43:22.135Z,14.17
2022-10-27T09:44:22.219Z,14.18
2022-10-27T09:45:22.105Z,14.22
2022-10-27T09:46:23.029Z,14.20
2022-10-27T09:47:22.134Z,14.25
2022-10-27T09:48:22.064Z,14.25
2022-10-27T09:49:22.056Z,14.28
2022-10-27T09:50:22.075Z,14.28
2022-10-27T09:51:22.059Z,14.29
2022-10-27T09:52:22.023Z,14.32
2022-10-27T09:53:22.029Z,14.32
2022-10-27T09:54:22.006Z,14.35
2022-10-27T09:55:22.002Z,14.36
2022-10-27T09:56:22.009Z,14.37
2022-10-27T09:57:21.974Z,14.40
2022-10-27T09:58:21.957Z,14.43
2022-10-27T09:59:21.951Z,14.44
2022-10-27T10:00:21.938Z,14.45
2022-10-27T10:01:21.986Z,14.47
2022-10-27T10:02:21.986Z,14.48
2022-10-27T10:03:21.910Z,14.50
2022-10-27T10:04:21.901Z,14.50
2022-10-27T10:05:21.912Z,14.53
2022-10-27T10:06:21.869Z,14.55
2022-10-27T10:07:21.862Z,14.55
2022-10-27T10:08:21.863Z,14.58
2022-10-27T10:09:21.847Z,14.59
2022-10-27T10:10:25.606Z,14.62
2022-10-27T10:11:21.825Z,14.62
2022-10-27T10:12:23.537Z,14.66
2022-10-27T10:13:21.802Z,14.66
2022-10-27T10:14:21.801Z,14.70
2022-10-27T10:15:21.779Z,14.72
2022-10-27T10:16:21.768Z,14.77
2022-10-27T10:17:21.751Z,14.78
2022-10-27T10:18:21.743Z,14.79
2022-10-27T10:19:21.959Z,14.81
2022-10-27T10:20:21.746Z,14.84
2022-10-27T10:21:21.717Z,14.85
2022-10-27T10:22:21.698Z,14.86
2022-10-27T10:23:21.686Z,14.85
2022-10-27T10:24:21.668Z,14.91
2022-10-27T10:25:21.667Z,14.91
2022-10-27T10:26:21.664Z,14.96
2022-10-27T10:27:21.648Z,14.96
2022-10-27T10:28:21.663Z,14.99
2022-10-27T10:29:21.622Z,15.02
2022-10-27T10:30:21.604Z,15.03
2022-10-27T10:31:21.661Z,15.03
2022-10-27T10:32:21.586Z,15.06
2022-10-27T10:33:21.593Z,15.04
2022-10-27T10:34:21.576Z,15.07
2022-10-27T10:35:21.559Z,15.10
2022-10-27T10:36:21.555Z,15.11
2022-10-27T10:38:21.542Z,15.17
2022-10-27T10:39:21.537Z,15.18
2022-10-27T10:40:21.516Z,15.21
2022-10-27T10:41:21.498Z,15.24
2022-10-27T10:42:21.501Z,15.25
2022-10-27T10:43:21.479Z,15.25
2022-10-27T10:44:21.460Z,15.28
2022-10-27T10:45:21.487Z,15.29
2022-10-27T10:46:21.431Z,15.31
2022-10-27T10:47:21.432Z,15.33
2022-10-27T10:48:21.412Z,15.36
2022-10-27T10:49:21.400Z,15.39
2022-10-27T10:50:21.402Z,15.42
2022-10-27T10:51:21.456Z,15.43
2022-10-27T10:52:21.366Z,15.46
2022-10-27T10:53:21.358Z,15.47
2022-10-27T10:54:21.346Z,15.49
2022-10-27T10:55:21.340Z,15.51
2022-10-27T10:56:21.349Z,15.55
2022-10-27T10:57:21.328Z,15.57
2022-10-27T10:58:21.302Z,15.61
2022-10-27T10:59:21.304Z,15.61
2022-10-27T11:00:21.288Z,15.62
2022-10-27T11:01:21.491Z,15.67
2022-10-27T11:02:21.274Z,15.67
2022-10-27T11:03:21.266Z,15.70
2022-10-27T11:04:21.245Z,15.72
2022-10-27T11:05:21.414Z,15.73
2022-10-27T11:06:21.215Z,15.76
2022-10-27T11:07:21.233Z,15.77
2022-10-27T11:08:21.209Z,15.79
2022-10-27T11:09:21.191Z,15.80
2022-10-27T11:10:21.172Z,15.80
2022-10-27T11:11:21.169Z,15.84
2022-10-27T11:12:21.159Z,15.86
2022-10-27T11:13:21.291Z,15.90
2022-10-27T11:14:21.154Z,15.94
2022-10-27T11:15:21.132Z,15.97
2022-10-27T11:16:27.121Z,15.98
2022-10-27T11:17:21.840Z,16.02
2022-10-27T11:18:21.088Z,16.04
2022-10-27T11:19:21.081Z,16.05
2022-10-27T11:20:21.087Z,16.10
2022-10-27T11:21:21.056Z,16.10
2022-10-27T11:22:21.077Z,16.10
2022-10-27T11:23:21.082Z,16.15
2022-10-27T11:24:21.043Z,16.13
2022-10-27T11:25:21.022Z,16.16
2022-10-27T11:26:21.000Z,16.17
2022-10-27T11:27:21.035Z,16.23
2022-10-27T11:28:20.981Z,16.24
2022-10-27T11:29:20.966Z,16.29
2022-10-27T11:30:21.002Z,16.35
2022-10-27T11:31:20.954Z,16.39
2022-10-27T11:32:20.936Z,16.41
2022-10-27T11:33:20.922Z,16.47
2022-10-27T11:34:20.941Z,16.53
2022-10-27T11:35:21.021Z,16.54
2022-10-27T11:36:20.924Z,16.60
2022-10-27T11:37:20.897Z,16.64
2022-10-27T11:38:20.914Z,16.66
2022-10-27T11:39:22.996Z,16.71
2022-10-27T11:40:22.648Z,16.75
2022-10-27T11:41:20.924Z,16.79
2022-10-27T11:42:20.826Z,16.81
2022-10-27T11:43:20.813Z,16.86
2022-10-27T11:44:20.806Z,16.91
2022-10-27T11:45:20.820Z,16.90
2022-10-27T11:46:20.792Z,16.94
2022-10-27T11:47:23.678Z,17.01
2022-10-27T11:48:20.794Z,17.05
2022-10-27T11:49:20.749Z,17.08
2022-10-27T11:50:20.745Z,17.09
2022-10-27T11:51:21.436Z,17.12
2022-10-27T11:52:20.765Z,17.16
2022-10-27T11:53:20.726Z,17.16
2022-10-27T11:54:20.700Z,17.19
2022-10-27T11:55:20.682Z,17.22
2022-10-27T11:56:20.668Z,17.23
2022-10-27T11:57:28.282Z,17.27
2022-10-27T11:58:20.717Z,17.29
2022-10-27T11:59:20.648Z,17.36
2022-10-27T12:00:20.638Z,17.42
2022-10-27T12:01:20.683Z,17.44
2022-10-27T12:02:20.658Z,17.48
2022-10-27T12:03:20.703Z,17.51
2022-10-27T12:04:20.594Z,17.59
2022-10-27T12:05:20.597Z,17.67
2022-10-27T12:06:20.559Z,17.74
2022-10-27T12:07:20.549Z,17.83
2022-10-27T12:08:20.649Z,17.89
2022-10-27T12:09:20.542Z,17.97
2022-10-27T12:10:20.521Z,18.04
2022-10-27T12:11:20.513Z,18.07
2022-10-27T12:12:20.521Z,18.13
2022-10-27T12:13:20.491Z,18.20
2022-10-27T12:14:20.499Z,18.23
2022-10-27T12:15:20.465Z,18.34
2022-10-27T12:16:20.461Z,18.43
2022-10-27T12:17:20.445Z,18.53
2022-10-27T12:18:20.437Z,18.70
2022-10-27T12:19:20.421Z,18.78
2022-10-27T12:20:20.434Z,18.84
2022-10-27T12:21:20.424Z,18.90
2022-10-27T12:22:20.401Z,18.92
2022-10-27T12:23:20.390Z,18.96
2022-10-27T12:24:20.376Z,18.99
2022-10-27T12:25:20.365Z,19.04
2022-10-27T12:26:20.372Z,19.04
2022-10-27T12:27:20.333Z,19.09
2022-10-27T12:28:20.328Z,19.12
2022-10-27T12:29:20.310Z,19.18
2022-10-27T12:30:20.310Z,19.27
2022-10-27T12:31:20.309Z,19.34
2022-10-27T12:32:20.280Z,19.39
2022-10-27T12:33:20.292Z,19.47
2022-10-27T12:34:20.263Z,19.51
2022-10-27T12:35:20.247Z,19.58
2022-10-27T12:36:20.272Z,19.62
2022-10-27T12:37:22.517Z,19.67
2022-10-27T12:38:20.241Z,19.70
2022-10-27T12:39:20.203Z,19.71
2022-10-27T12:40:20.193Z,19.70
2022-10-27T12:41:20.182Z,19.70
2022-10-27T12:42:20.187Z,19.74
2022-10-27T12:43:20.752Z,19.77
2022-10-27T12:44:20.182Z,19.77
2022-10-27T12:45:20.141Z,19.79
2022-10-27T12:46:20.147Z,19.79
2022-10-27T12:47:20.145Z,19.84
2022-10-27T12:48:20.162Z,19.82
2022-10-27T12:49:20.094Z,19.84
2022-10-27T12:50:20.116Z,19.85
2022-10-27T12:51:20.081Z,19.89
2022-10-27T12:52:20.072Z,19.92
2022-10-27T12:53:20.083Z,19.94
2022-10-27T12:54:20.084Z,19.92
2022-10-27T12:55:20.064Z,19.99
2022-10-27T12:56:22.473Z,19.96
2022-10-27T12:57:20.011Z,19.96
2022-10-27T12:58:20.009Z,20.00
2022-10-27T12:59:19.986Z,20.03
2022-10-27T13:00:20.074Z,20.04
2022-10-27T13:01:20.109Z,20.04
2022-10-27T13:02:20.055Z,20.04
2022-10-27T13:03:19.938Z,20.06
2022-10-27T13:04:19.966Z,20.09
2022-10-27T13:05:19.946Z,20.10
2022-10-27T13:06:19.916Z,20.18
2022-10-27T13:07:19.900Z,20.22
2022-10-27T13:08:19.891Z,20.28
2022-10-27T13:09:19.896Z,20.29
2022-10-27T13:10:19.873Z,20.34
2022-10-27T13:11:19.882Z,20.39
2022-10-27T13:12:19.869Z,20.41
2022-10-27T13:13:19.829Z,20.44
2022-10-27T13:14:19.824Z,20.48
2022-10-27T13:15:19.809Z,20.56
2022-10-27T13:16:19.812Z,20.60
2022-10-27T13:17:19.803Z,20.60
2022-10-27T13:18:19.800Z,20.62
2022-10-27T13:19:19.770Z,20.66
2022-10-27T13:20:19.777Z,20.70
2022-10-27T13:21:19.746Z,20.74
2022-10-27T13:22:19.745Z,20.78
2022-10-27T13:23:19.732Z,20.80
2022-10-27T13:24:19.726Z,20.84
2022-10-27T13:25:19.749Z,20.84
2022-10-27T13:26:19.756Z,20.92
2022-10-27T13:27:19.682Z,20.95
2022-10-27T13:28:19.683Z,20.97
2022-10-27T13:29:19.689Z,20.99
2022-10-27T13:30:19.675Z,21.02
2022-10-27T13:31:19.640Z,21.02
2022-10-27T13:32:19.652Z,21.00
2022-10-27T13:33:19.616Z,21.03
2022-10-27T13:34:19.605Z,21.05
2022-10-27T13:35:19.606Z,21.07
2022-10-27T13:36:19.599Z,21.12
2022-10-27T13:37:19.574Z,21.14
2022-10-27T13:38:19.568Z,21.15
2022-10-27T13:39:19.551Z,21.17
2022-10-27T13:40:19.538Z,21.21
2022-10-27T13:41:19.539Z,21.22
2022-10-27T13:43:19.516Z,21.24
2022-10-27T13:44:19.513Z,21.27
2022-10-27T13:45:19.511Z,21.30
2022-10-27T13:46:19.475Z,21.33
2022-10-27T13:47:19.495Z,21.36
2022-10-27T13:48:19.452Z,21.42
2022-10-27T13:49:19.446Z,21.43
2022-10-27T13:50:19.459Z,21.48
2022-10-27T13:51:25.418Z,21.48
2022-10-27T13:52:19.411Z,21.50
2022-10-27T13:53:19.433Z,21.52
2022-10-27T13:54:19.389Z,21.55
2022-10-27T13:55:19.389Z,21.57
2022-10-27T13:56:19.386Z,21.57
2022-10-27T13:57:19.357Z,21.57
2022-10-27T13:58:19.433Z,21.55
2022-10-27T13:59:20.344Z,21.60
2022-10-27T14:00:19.354Z,21.60
2022-10-27T14:01:19.607Z,21.60
2022-10-27T14:02:19.488Z,21.66
2022-10-27T14:03:19.291Z,21.66
2022-10-27T14:04:19.280Z,21.64
2022-10-27T14:05:19.290Z,21.67
2022-10-27T14:06:19.264Z,21.69
2022-10-27T14:07:19.244Z,21.69
2022-10-27T14:08:19.251Z,21.69
2022-10-27T14:09:19.232Z,21.70
2022-10-27T14:10:19.238Z,21.70
2022-10-27T14:11:19.213Z,21.72
2022-10-27T14:12:20.111Z,21.69
2022-10-27T14:13:19.258Z,21.73
2022-10-27T14:14:19.168Z,21.77
2022-10-27T14:15:19.161Z,21.80
2022-10-27T14:16:19.174Z,21.76
2022-10-27T14:17:19.150Z,21.80
2022-10-27T14:18:19.125Z,21.77
2022-10-27T14:19:19.125Z,21.77
2022-10-27T14:20:19.109Z,21.77
2022-10-27T14:21:19.093Z,21.80
2022-10-27T14:22:19.101Z,21.83
2022-10-27T14:23:19.066Z,21.85
2022-10-27T14:24:19.084Z,21.89
2022-10-27T14:25:19.053Z,21.89
2022-10-27T14:26:19.063Z,21.88
2022-10-27T14:27:19.131Z,21.89
2022-10-27T14:28:19.034Z,21.89
2022-10-27T14:29:19.017Z,21.93
2022-10-27T14:30:18.994Z,21.93
2022-10-27T14:31:19.006Z,21.93
2022-10-27T14:32:18.983Z,21.92
2022-10-27T14:33:18.968Z,21.96
2022-10-27T14:34:18.961Z,21.95
2022-10-27T14:35:18.944Z,21.96
2022-10-27T14:36:18.931Z,21.98
2022-10-27T14:37:18.947Z,21.93
2022-10-27T14:38:18.997Z,21.89
2022-10-27T14:39:18.896Z,21.89
2022-10-27T14:40:18.896Z,21.89
2022-10-27T14:41:18.894Z,21.88
2022-10-27T14:42:18.897Z,21.85
2022-10-27T14:43:18.871Z,21.88
2022-10-27T14:44:18.845Z,21.82
2022-10-27T14:45:18.904Z,21.77
2022-10-27T14:46:18.822Z,21.77
2022-10-27T14:47:18.848Z,21.79
2022-10-27T14:48:18.848Z,21.76
2022-10-27T14:49:18.793Z,21.73
2022-10-27T14:50:18.781Z,21.70
2022-10-27T14:51:18.793Z,21.69
2022-10-27T14:52:18.806Z,21.72
2022-10-27T14:53:18.748Z,21.69
2022-10-27T14:54:18.770Z,21.69
2022-10-27T14:55:18.930Z,21.69
2022-10-27T14:56:18.758Z,21.66
2022-10-27T14:57:18.717Z,21.62
2022-10-27T14:58:18.705Z,21.64
2022-10-27T14:59:18.680Z,21.66
2022-10-27T15:00:18.684Z,21.62
2022-10-27T15:01:25.726Z,21.58
2022-10-27T15:02:18.755Z,21.58
2022-10-27T15:03:18.637Z,21.60
2022-10-27T15:04:18.650Z,21.58
2022-10-27T15:05:18.619Z,21.55
2022-10-27T15:06:18.613Z,21.52
2022-10-27T15:07:18.594Z,21.51
2022-10-27T15:08:18.596Z,21.50
2022-10-27T15:09:18.572Z,21.50
2022-10-27T15:10:18.740Z,21.46
2022-10-27T15:11:18.558Z,21.48
2022-10-27T15:12:18.564Z,21.46
2022-10-27T15:13:18.536Z,21.43
2022-10-27T15:14:18.558Z,21.42
2022-10-27T15:15:18.526Z,21.39
2022-10-27T15:16:18.554Z,21.36
2022-10-27T15:17:18.564Z,21.37
2022-10-27T15:19:18.494Z,21.30
2022-10-27T15:20:18.466Z,21.24
2022-10-27T15:21:18.470Z,21.22
2022-10-27T15:22:18.433Z,21.20
2022-10-27T15:23:18.416Z,21.18
2022-10-27T15:24:18.428Z,21.11
2022-10-27T15:25:18.401Z,21.11
2022-10-27T15:26:18.402Z,21.06
2022-10-27T15:27:18.399Z,21.02
2022-10-27T15:28:18.361Z,21.00
2022-10-27T15:29:18.349Z,20.99
2022-10-27T15:30:18.342Z,20.96
2022-10-27T15:31:18.325Z,20.90
2022-10-27T15:32:18.332Z,20.88
2022-10-27T15:33:18.330Z,20.81
2022-10-27T15:34:18.369Z,20.78
2022-10-27T15:35:18.291Z,20.74
2022-10-27T15:36:18.292Z,20.70
2022-10-27T15:37:18.283Z,20.70
2022-10-27T15:38:18.265Z,20.67
2022-10-27T15:39:18.262Z,20.63
2022-10-27T15:40:18.371Z,20.63
2022-10-27T15:41:21.218Z,20.62
2022-10-27T15:42:18.249Z,20.56
2022-10-27T15:43:19.129Z,20.55
2022-10-27T15:44:18.193Z,20.50
2022-10-27T15:45:18.172Z,20.44
2022-10-27T15:46:18.193Z,20.41
2022-10-27T15:47:18.167Z,20.40
2022-10-27T15:48:18.179Z,20.37
2022-10-27T15:49:18.128Z,20.34
2022-10-27T15:50:18.200Z,20.28
2022-10-27T15:51:18.119Z,20.26
2022-10-27T15:52:18.107Z,20.22
2022-10-27T15:53:18.110Z,20.19
2022-10-27T15:55:18.073Z,20.11
2022-10-27T15:56:18.081Z,20.07
2022-10-27T15:57:18.073Z,20.04
2022-10-27T15:58:18.041Z,20.03
2022-10-27T15:59:18.033Z,19.99
2022-10-27T16:00:18.057Z,19.92
2022-10-27T16:01:18.100Z,19.88
2022-10-27T16:02:18.000Z,19.86
2022-10-27T16:03:17.987Z,19.84
2022-10-27T16:04:17.976Z,19.81
2022-10-27T16:05:17.985Z,19.79
2022-10-27T16:06:17.970Z,19.77
2022-10-27T16:07:17.960Z,19.77
2022-10-27T16:08:17.944Z,19.73
2022-10-27T16:09:17.951Z,19.73
2022-10-27T16:10:17.921Z,19.70
2022-10-27T16:11:17.942Z,19.66
2022-10-27T16:12:17.905Z,19.66
2022-10-27T16:13:17.893Z,19.62
2022-10-27T16:14:17.857Z,19.58
2022-10-27T16:15:18.055Z,19.52
2022-10-27T16:16:17.851Z,19.48
2022-10-27T16:17:17.847Z,19.45
2022-10-27T16:18:17.842Z,19.41
2022-10-27T16:19:17.809Z,19.39
2022-10-27T16:20:17.797Z,19.33
2022-10-27T16:21:17.785Z,19.31
2022-10-27T16:22:17.784Z,19.30
2022-10-27T16:23:17.774Z,19.24
2022-10-27T16:24:17.810Z,19.24
2022-10-27T16:25:17.754Z,19.19
2022-10-27T16:26:17.727Z,19.16
2022-10-27T16:27:17.758Z,19.15
2022-10-27T16:28:17.735Z,19.11
2022-10-27T16:29:17.704Z,19.07
2022-10-27T16:30:17.708Z,19.07
2022-10-27T16:31:17.685Z,19.02
2022-10-27T16:32:17.662Z,19.00
2022-10-27T16:33:17.661Z,18.99
2022-10-27T16:34:18.126Z,18.99
2022-10-27T16:35:18.566Z,18.95
2022-10-27T16:36:17.674Z,18.90
2022-10-27T16:37:17.683Z,18.88
2022-10-27T16:38:17.657Z,18.86
2022-10-27T16:39:17.654Z,18.83
2022-10-27T16:40:17.982Z,18.78
2022-10-27T16:41:17.641Z,18.77
2022-10-27T16:42:17.612Z,18.75
2022-10-27T16:43:17.610Z,18.73
2022-10-27T16:44:17.598Z,18.70
2022-10-27T16:45:17.582Z,18.68
2022-10-27T16:46:17.583Z,18.65
2022-10-27T16:47:17.581Z,18.60
2022-10-27T16:48:17.552Z,18.59
2022-10-27T16:49:17.559Z,18.56
2022-10-27T16:50:17.524Z,18.58